METAR Data
IDs: Format: Raw Decoded Include TAF

Data at: 0235 UTC 25 Jan 2020

PAFM 250156Z AUTO 00000KT 10SM CLR M32/M35 A3014 RMK AO2 SLP221 T13171350 FZRANO
PAFM 250056Z AUTO 00000KT 10SM CLR M31/M34 A3014 RMK AO2 SLP223 T13111344 FZRANO
PAFM 242356Z AUTO 00000KT 10SM CLR M29/M33 A3014 RMK AO2 SLP223 T12941328 11272 21333 58006 FZRANO
PAFM 242256Z AUTO VRB03KT 10SM CLR M29/M32 A3015 RMK AO2 SLP225 T12891322 FZRANO
PAFM 242156Z AUTO 25003KT 10SM CLR M27/M30 A3016 RMK AO2 SLP228 T12721300 FZRANO
PAFM 242056Z AUTO 00000KT 9SM CLR M33/M36 A3016 RMK AO2 SLP230 T13281356 51006 FZRANO
PAFM 241956Z AUTO 22003KT 10SM CLR M33/M36 A3016 RMK AO2 SLP227 T13281361 FZRANO
PAFM 241856Z AUTO 24003KT 10SM CLR M32/M36 A3015 RMK AO2 SLP225 T13221356 FZRANO
PAFM 241756Z AUTO 00000KT 10SM CLR M28/M31 A3014 RMK AO2 SLP223 T12831311 11272 21311 56003 FZRANO
PAFM 241656Z AUTO 27007KT 10SM CLR M30/M32 A3014 RMK AO2 SLP223 T13001322 FZRANO
PAFM 241556Z AUTO 27003KT 10SM CLR M29/M32 A3015 RMK AO2 SLP224 T12891317 FZRANO
PAFM 241456Z AUTO 00000KT 10SM CLR M30/M33 A3015 RMK AO2 SLP226 T13001328 51000 FZRANO
PAFM 241356Z AUTO 00000KT 10SM CLR M29/M32 A3015 RMK AO2 SLP225 T12891317 FZRANO
PAFM 241256Z AUTO 00000KT 10SM CLR M29/M32 A3015 RMK AO2 SLP226 T12891317 FZRANO
PAFM 241156Z AUTO 28006KT 10SM CLR M28/M31 A3015 RMK AO2 SLP225 T12831306 11278 21322 51007 FZRANO
PAFM 241056Z AUTO 00000KT 10SM CLR M32/M35 A3014 RMK AO2 SLP223 T13171350 FZRANO
PAFM 240956Z AUTO 00000KT 10SM CLR M32/M35 A3014 RMK AO2 SLP223 T13171350 FZRANO
PAFM 240756Z AUTO 32003KT 10SM CLR M29/M32 A3012 RMK AO2 SLP215 T12941322 412171306 FZRANO
PAFM 240656Z AUTO 00000KT 10SM CLR M28/M31 A3010 RMK AO2 SLP210 T12831311 FZRANO
PAFM 240556Z AUTO 00000KT 10SM CLR M29/M32 A3011 RMK AO2 SLP210 T12941322 11244 21306 51010 FZRANO
PAFM 240456Z AUTO 00000KT 10SM CLR M27/M29 A3009 RMK AO2 SLP206 T12721294 FZRANO
PAFM 240356Z AUTO 00000KT 10SM CLR M26/M29 A3009 RMK AO2 SLP203 T12611289 FZRANO
PAFM 240256Z AUTO 00000KT 10SM CLR M26/M28 A3007 RMK AO2 SLP199 T12561283 51010 FZRANO
PAFM 240156Z AUTO 29003KT 10SM CLR M26/M28 A3006 RMK AO2 SLP194 T12561283 FZRANO
PAFM 240056Z AUTO 00000KT 10SM CLR M25/M28 A3006 RMK AO2 SLP191 T12501278 FZRANO
PAFM 232256Z AUTO 07003KT 10SM CLR M23/M25 A3004 RMK AO2 SLP185 T12281250 FZRANO
PAFM 232156Z AUTO 35003KT 10SM CLR M26/M28 A3003 RMK AO2 SLP181 T12561278 FZRANO
PAFM 232056Z AUTO 00000KT 10SM CLR M27/M30 A3002 RMK AO2 SLP180 T12721300 51012 FZRANO
PAFM 231956Z AUTO 00000KT 10SM CLR M27/M29 A3001 RMK AO2 SLP177 T12671289 FZRANO
PAFM 231856Z AUTO 03003KT 10SM CLR M28/M30 A3000 RMK AO2 SLP173 T12781300 FZRANO
PAFM 231756Z AUTO 00000KT 10SM CLR M28/M31 A2999 RMK AO2 SLP168 60000 T12831306 11239 21283 52009 FZRANO
PAFM 231656Z AUTO 00000KT 10SM CLR M26/M28 A2998 RMK AO2 SLP165 T12561283 FZRANO
PAFM 231556Z AUTO 02004KT 10SM CLR M26/M28 A2997 RMK AO2 SNE43 SLP161 P0000 T12611283 FZRANO